createdAt,value
2023-03-11T00:01:55.834Z,10.54
2023-03-11T00:04:57.917Z,10.54
2023-03-11T00:08:00.638Z,10.48
2023-03-11T00:11:02.582Z,10.48
2023-03-11T00:14:04.437Z,10.54
2023-03-11T00:17:06.459Z,10.56
2023-03-11T00:20:15.299Z,10.54
2023-03-11T00:23:17.541Z,10.47
2023-03-11T00:26:19.599Z,10.36
2023-03-11T00:29:22.368Z,10.50
2023-03-11T00:32:24.583Z,10.51
2023-03-11T00:35:30.824Z,10.49
2023-03-11T00:38:33.563Z,10.37
2023-03-11T00:41:35.808Z,10.47
2023-03-11T00:44:38.156Z,10.56
2023-03-11T00:47:40.522Z,10.51
2023-03-11T00:50:43.190Z,10.50
2023-03-11T00:53:45.342Z,10.60
2023-03-11T00:56:49.967Z,10.57
2023-03-11T00:59:53.522Z,10.48
2023-03-11T01:02:56.631Z,10.44
2023-03-11T01:06:01.305Z,10.35
2023-03-11T01:09:04.894Z,10.37
2023-03-11T01:12:07.479Z,10.37
2023-03-11T01:15:16.787Z,10.33
2023-03-11T01:18:22.354Z,10.30
2023-03-11T01:21:24.489Z,10.25
2023-03-11T01:24:27.139Z,10.25
2023-03-11T01:30:46.401Z,10.17
2023-03-11T01:33:49.152Z,10.14
2023-03-11T01:36:51.770Z,10.02
2023-03-11T01:39:53.972Z,9.97
2023-03-11T01:42:56.731Z,9.96
2023-03-11T01:45:58.810Z,9.94
2023-03-11T01:49:02.889Z,9.91
2023-03-11T01:52:10.168Z,9.96
2023-03-11T01:55:13.849Z,9.92
2023-03-11T01:58:21.112Z,9.88
2023-03-11T02:01:24.320Z,9.86
2023-03-11T02:04:33.110Z,9.80
2023-03-11T02:07:35.276Z,9.82
2023-03-11T02:10:42.029Z,9.90
2023-03-11T02:13:46.534Z,9.89
2023-03-11T02:16:48.476Z,9.85
2023-03-11T02:20:06.375Z,9.93
2023-03-11T02:23:09.053Z,9.92
2023-03-11T02:26:21.548Z,9.91
2023-03-11T02:29:27.585Z,9.91
2023-03-11T02:32:31.198Z,9.92
2023-03-11T02:35:33.186Z,9.87
2023-03-11T02:38:35.364Z,9.85
2023-03-11T02:41:40.430Z,9.85
2023-03-11T02:44:47.245Z,9.86
2023-03-11T02:47:49.994Z,9.84
2023-03-11T02:50:52.367Z,9.91
2023-03-11T02:53:59.740Z,9.90
2023-03-11T02:57:01.610Z,9.96
2023-03-11T03:00:11.023Z,9.96
2023-03-11T03:03:15.818Z,9.96
2023-03-11T03:06:17.871Z,9.95
2023-03-11T03:09:19.815Z,10.04
2023-03-11T03:12:22.839Z,10.01
2023-03-11T03:15:24.877Z,10.01
2023-03-11T03:18:29.670Z,10.01
2023-03-11T03:21:31.698Z,9.97
2023-03-11T03:24:33.544Z,9.96
2023-03-11T03:27:35.490Z,9.96
2023-03-11T03:30:38.367Z,9.96
2023-03-11T03:33:40.420Z,9.89
2023-03-11T03:36:42.527Z,9.92
2023-03-11T03:39:44.419Z,9.89
2023-03-11T03:42:46.475Z,9.89
2023-03-11T03:46:04.468Z,9.79
2023-03-11T03:49:06.668Z,9.68
2023-03-11T03:52:10.496Z,9.69
2023-03-11T03:55:12.378Z,9.63
2023-03-11T03:58:14.279Z,9.60
2023-03-11T04:01:16.396Z,9.53
2023-03-11T04:04:18.532Z,9.51
2023-03-11T04:07:20.841Z,9.46
2023-03-11T04:10:22.786Z,9.45
2023-03-11T04:13:24.785Z,9.31
2023-03-11T04:16:26.715Z,9.29
2023-03-11T04:19:28.499Z,9.23
2023-03-11T04:22:30.530Z,9.26
2023-03-11T04:25:35.456Z,9.24
2023-03-11T04:28:37.363Z,9.11
2023-03-11T04:31:40.470Z,9.11
2023-03-11T04:34:42.690Z,9.21
2023-03-11T04:37:44.593Z,9.02
2023-03-11T04:40:46.664Z,9.05
2023-03-11T04:43:48.518Z,8.97
2023-03-11T04:46:51.855Z,8.84
2023-03-11T04:49:56.276Z,8.62
2023-03-11T04:52:58.409Z,8.49
2023-03-11T04:56:00.301Z,8.47
2023-03-11T04:59:03.780Z,8.27
2023-03-11T05:02:05.788Z,8.15
2023-03-11T05:05:12.135Z,8.16
2023-03-11T05:08:14.102Z,8.07
2023-03-11T05:11:16.037Z,7.93
2023-03-11T05:14:17.947Z,7.73
2023-03-11T05:17:20.138Z,7.76
2023-03-11T05:20:22.098Z,7.62
2023-03-11T05:23:25.677Z,7.58
2023-03-11T05:26:29.623Z,7.46
2023-03-11T05:29:31.944Z,7.37
2023-03-11T05:32:34.624Z,7.29
2023-03-11T05:35:36.638Z,7.47
2023-03-11T05:38:39.728Z,7.37
2023-03-11T05:41:43.677Z,7.46
2023-03-11T05:44:45.676Z,7.41
2023-03-11T05:47:47.748Z,7.47
2023-03-11T05:50:49.730Z,7.48
2023-03-11T05:53:52.271Z,7.25
2023-03-11T05:56:54.290Z,7.24
2023-03-11T05:59:57.605Z,7.06
2023-03-11T06:03:01.063Z,7.06
2023-03-11T06:06:06.610Z,6.98
2023-03-11T06:09:13.382Z,6.97
2023-03-11T06:12:16.035Z,6.77
2023-03-11T06:15:18.080Z,6.80
2023-03-11T06:18:21.359Z,6.97
2023-03-11T06:21:24.591Z,6.88
2023-03-11T06:24:28.458Z,6.95
2023-03-11T06:27:33.454Z,6.88
2023-03-11T06:30:35.693Z,6.76
2023-03-11T06:33:38.352Z,6.80
2023-03-11T06:36:41.116Z,6.71
2023-03-11T06:39:43.364Z,6.79
2023-03-11T06:42:48.505Z,6.70
2023-03-11T06:45:50.476Z,6.48
2023-03-11T06:48:52.998Z,6.56
2023-03-11T06:51:54.879Z,6.57
2023-03-11T06:54:58.972Z,6.72
2023-03-11T06:58:01.209Z,6.62
2023-03-11T07:01:18.785Z,6.68
2023-03-11T07:04:21.410Z,6.57
2023-03-11T07:07:23.938Z,6.56
2023-03-11T07:10:26.517Z,6.56
2023-03-11T07:13:29.809Z,6.52
2023-03-11T07:16:31.851Z,6.43
2023-03-11T07:19:34.110Z,6.42
2023-03-11T07:22:36.055Z,6.41
2023-03-11T07:25:38.017Z,6.34
2023-03-11T07:28:41.204Z,6.30
2023-03-11T07:31:43.827Z,6.21
2023-03-11T07:34:48.505Z,6.29
2023-03-11T07:37:51.216Z,6.17
2023-03-11T07:41:00.429Z,6.02
2023-03-11T07:44:06.346Z,6.07
2023-03-11T07:47:09.650Z,6.35
2023-03-11T07:50:12.590Z,6.30
2023-03-11T07:53:16.411Z,6.52
2023-03-11T07:56:19.553Z,6.48
2023-03-11T07:59:21.452Z,6.49
2023-03-11T08:02:23.741Z,6.58
2023-03-11T08:05:25.757Z,6.56
2023-03-11T08:08:29.326Z,6.65
2023-03-11T08:11:34.096Z,6.64
2023-03-11T08:14:36.066Z,6.74
2023-03-11T08:17:39.017Z,6.81
2023-03-11T08:20:41.318Z,6.70
2023-03-11T08:23:46.774Z,6.99
2023-03-11T08:26:48.904Z,6.89
2023-03-11T08:29:51.065Z,6.72
2023-03-11T08:32:56.895Z,6.94
2023-03-11T08:35:58.942Z,7.02
2023-03-11T08:39:01.379Z,6.90
2023-03-11T08:42:05.141Z,6.92
2023-03-11T08:45:09.872Z,6.99
2023-03-11T08:48:13.100Z,7.14
2023-03-11T08:51:16.677Z,7.04
2023-03-11T08:54:19.054Z,7.25
2023-03-11T08:57:21.131Z,7.33
2023-03-11T09:00:23.585Z,7.48
2023-03-11T09:03:26.453Z,7.41
2023-03-11T09:06:30.603Z,7.40
2023-03-11T09:09:33.296Z,7.63
2023-03-11T09:13:12.572Z,7.42
2023-03-11T09:16:26.259Z,7.43
2023-03-11T09:19:28.968Z,7.48
2023-03-11T09:22:31.800Z,7.41
2023-03-11T09:25:34.255Z,7.60
2023-03-11T09:28:36.307Z,7.33
2023-03-11T09:31:41.388Z,7.02
2023-03-11T09:34:43.834Z,7.27
2023-03-11T09:37:45.705Z,7.14
2023-03-11T09:41:14.095Z,7.31
2023-03-11T09:44:44.290Z,6.86
2023-03-11T09:48:23.865Z,6.82
2023-03-11T09:51:36.541Z,6.82
2023-03-11T09:54:43.379Z,6.91
2023-03-11T09:57:45.412Z,6.71
2023-03-11T10:00:48.400Z,6.87
2023-03-11T10:03:54.775Z,7.02
2023-03-11T10:07:00.180Z,7.07
2023-03-11T10:10:03.068Z,6.92
2023-03-11T10:13:25.309Z,6.75
2023-03-11T10:16:55.020Z,6.86
2023-03-11T10:20:14.569Z,6.82
2023-03-11T10:23:41.816Z,6.73
2023-03-11T10:26:52.380Z,6.59
2023-03-11T10:30:09.566Z,6.55
2023-03-11T10:33:25.269Z,6.49
2023-03-11T10:36:36.215Z,6.41
2023-03-11T10:39:38.916Z,6.36
2023-03-11T10:42:46.060Z,6.39
2023-03-11T10:45:52.067Z,6.40
2023-03-11T10:48:55.409Z,6.26
2023-03-11T10:51:58.732Z,6.28
2023-03-11T10:55:03.240Z,6.55
2023-03-11T10:58:11.379Z,6.87
2023-03-11T11:01:17.250Z,6.90
2023-03-11T11:04:37.220Z,6.81
2023-03-11T11:07:42.683Z,6.82
2023-03-11T11:11:00.815Z,7.07
2023-03-11T11:14:03.400Z,7.28
2023-03-11T11:17:05.625Z,7.55
2023-03-11T11:20:18.141Z,7.36
2023-03-11T11:23:56.842Z,7.32
2023-03-11T11:27:05.003Z,7.54
2023-03-11T11:30:17.726Z,7.43
2023-03-11T11:33:26.932Z,7.44
2023-03-11T11:36:32.255Z,7.51
2023-03-11T11:39:52.127Z,7.67
2023-03-11T11:43:14.413Z,7.53
2023-03-11T11:46:38.990Z,7.55
2023-03-11T11:49:58.838Z,7.13
2023-03-11T11:53:25.935Z,7.14
2023-03-11T11:56:29.447Z,7.38
2023-03-11T11:59:31.874Z,7.60
2023-03-11T12:02:51.038Z,7.79
2023-03-11T12:05:58.976Z,7.55
2023-03-11T12:09:30.216Z,7.43
2023-03-11T12:12:32.274Z,7.77
2023-03-11T12:15:41.844Z,7.52
2023-03-11T12:18:54.144Z,7.55
2023-03-11T12:22:20.825Z,7.72
2023-03-11T12:25:35.460Z,7.42
2023-03-11T12:28:59.203Z,7.33
2023-03-11T12:32:03.013Z,7.40
2023-03-11T12:35:23.679Z,7.67
2023-03-11T12:38:36.320Z,7.75
2023-03-11T12:41:42.373Z,7.63
2023-03-11T12:44:46.808Z,7.35
2023-03-11T12:48:27.455Z,7.36
2023-03-11T12:51:39.685Z,6.96
2023-03-11T12:54:41.998Z,6.85
2023-03-11T12:57:47.200Z,6.84
2023-03-11T13:00:54.968Z,6.95
2023-03-11T13:04:15.319Z,6.81
2023-03-11T13:07:40.400Z,7.19
2023-03-11T13:10:45.318Z,7.06
2023-03-11T13:13:48.225Z,6.98
2023-03-11T13:16:51.275Z,7.03
2023-03-11T13:20:03.449Z,7.05
2023-03-11T13:23:14.916Z,7.14
2023-03-11T13:26:45.002Z,7.16
2023-03-11T13:30:00.920Z,7.22
2023-03-11T13:33:49.182Z,7.10
2023-03-11T13:37:21.146Z,7.42
2023-03-11T13:40:40.303Z,7.36
2023-03-11T13:43:48.857Z,7.29
2023-03-11T13:46:56.997Z,7.24
2023-03-11T13:50:02.136Z,7.13
2023-03-11T13:53:12.059Z,6.91
2023-03-11T13:56:22.128Z,6.89
2023-03-11T13:59:27.696Z,6.95
2023-03-11T14:02:33.607Z,6.98
2023-03-11T14:05:38.855Z,6.94
2023-03-11T14:08:42.761Z,6.89
2023-03-11T14:11:48.130Z,6.81
2023-03-11T14:15:00.918Z,6.83
2023-03-11T14:18:29.504Z,6.98
2023-03-11T14:21:31.991Z,7.20
2023-03-11T14:24:34.712Z,7.17
2023-03-11T14:27:45.259Z,7.07
2023-03-11T14:30:59.238Z,6.70
2023-03-11T14:34:07.761Z,6.70
2023-03-11T14:37:26.180Z,6.62
2023-03-11T14:40:32.768Z,6.74
2023-03-11T14:43:41.719Z,6.58
2023-03-11T14:46:46.896Z,6.35
2023-03-11T14:49:53.654Z,6.47
2023-03-11T14:53:04.883Z,6.57
2023-03-11T14:56:16.116Z,6.64
2023-03-11T14:59:29.692Z,6.72
2023-03-11T15:02:45.190Z,6.85
2023-03-11T15:06:00.114Z,6.95
2023-03-11T15:09:09.132Z,6.68
2023-03-11T15:12:34.259Z,6.69
2023-03-11T15:15:36.331Z,6.45
2023-03-11T15:18:38.910Z,6.44
2023-03-11T15:21:48.354Z,6.47
2023-03-11T15:24:57.323Z,6.41
2023-03-11T15:28:43.018Z,6.27
2023-03-11T15:31:49.112Z,6.36
2023-03-11T15:35:04.386Z,6.21
2023-03-11T15:38:22.116Z,6.33
2023-03-11T15:41:24.580Z,6.26
2023-03-11T15:44:40.861Z,6.40
2023-03-11T15:47:44.099Z,6.35
2023-03-11T15:50:55.556Z,6.37
2023-03-11T15:53:57.537Z,6.26
2023-03-11T15:57:04.408Z,6.13
2023-03-11T16:00:18.094Z,6.21
2023-03-11T16:03:21.303Z,6.03
2023-03-11T16:06:26.087Z,6.17
2023-03-11T16:09:28.684Z,6.15
2023-03-11T16:12:31.315Z,6.20
2023-03-11T16:15:39.981Z,6.20
2023-03-11T16:18:42.235Z,6.08
2023-03-11T16:21:50.703Z,5.89
2023-03-11T16:24:55.181Z,5.93
2023-03-11T16:27:58.971Z,5.85
2023-03-11T16:31:09.664Z,5.78
2023-03-11T16:34:12.074Z,5.66
2023-03-11T16:37:21.358Z,5.76
2023-03-11T16:40:26.749Z,5.64
2023-03-11T16:43:30.932Z,5.72
2023-03-11T16:46:33.053Z,5.59
2023-03-11T16:49:35.652Z,5.56
2023-03-11T16:52:38.360Z,5.48
2023-03-11T16:55:40.454Z,5.54
2023-03-11T16:58:42.724Z,5.65
2023-03-11T17:01:46.865Z,5.59
2023-03-11T17:04:48.956Z,5.53
2023-03-11T17:08:01.896Z,5.51
2023-03-11T17:11:28.386Z,5.47
2023-03-11T17:14:34.718Z,5.38
2023-03-11T17:17:37.085Z,5.37
2023-03-11T17:20:41.074Z,5.33
2023-03-11T17:23:43.967Z,5.25
2023-03-11T17:26:45.887Z,5.26
2023-03-11T17:29:48.050Z,5.10
2023-03-11T17:32:51.481Z,5.12
2023-03-11T17:36:07.881Z,5.10
2023-03-11T17:39:11.125Z,5.04
2023-03-11T17:42:13.616Z,5.02
2023-03-11T17:45:15.973Z,4.93
2023-03-11T17:48:18.527Z,4.99
2023-03-11T17:51:24.148Z,4.92
2023-03-11T17:54:28.959Z,4.94
2023-03-11T17:57:44.472Z,4.91
2023-03-11T18:00:47.467Z,4.90
2023-03-11T18:03:50.863Z,4.85
2023-03-11T18:06:54.716Z,4.85
2023-03-11T18:09:59.904Z,4.98
2023-03-11T18:13:02.233Z,4.98
2023-03-11T18:16:14.856Z,4.89
2023-03-11T18:19:17.179Z,4.88
2023-03-11T18:22:20.262Z,4.89
2023-03-11T18:25:24.663Z,4.81
2023-03-11T18:28:27.766Z,4.89
2023-03-11T18:31:31.922Z,4.96
2023-03-11T18:34:36.029Z,4.91
2023-03-11T18:37:38.443Z,4.78
2023-03-11T18:40:41.088Z,4.63
2023-03-11T18:43:43.600Z,4.87
2023-03-11T18:46:48.624Z,4.74
2023-03-11T18:49:55.268Z,4.65
2023-03-11T18:52:57.238Z,4.67
2023-03-11T18:56:02.348Z,4.68
2023-03-11T18:59:12.434Z,4.65
2023-03-11T19:02:14.743Z,4.68
2023-03-11T19:05:19.563Z,4.45
2023-03-11T19:08:21.915Z,4.46
2023-03-11T19:11:25.984Z,4.53
2023-03-11T19:14:31.390Z,4.52
2023-03-11T19:17:33.495Z,4.55
2023-03-11T19:20:36.983Z,4.45
2023-03-11T19:23:40.994Z,4.44
2023-03-11T19:26:46.113Z,4.51
2023-03-11T19:29:49.803Z,4.45
2023-03-11T19:32:53.052Z,4.32
2023-03-11T19:36:02.023Z,4.32
2023-03-11T19:39:05.720Z,4.40
2023-03-11T19:42:08.887Z,4.27
2023-03-11T19:45:11.752Z,4.45
2023-03-11T19:48:16.364Z,4.20
2023-03-11T19:51:20.272Z,3.88
2023-03-11T19:54:26.946Z,3.88
2023-03-11T19:57:29.214Z,4.01
2023-03-11T20:00:32.355Z,3.90
2023-03-11T20:03:36.067Z,3.82
2023-03-11T20:06:44.226Z,3.83
2023-03-11T20:09:46.672Z,3.88
2023-03-11T20:13:01.453Z,3.84
2023-03-11T20:16:09.865Z,3.81
2023-03-11T20:19:12.471Z,3.78
2023-03-11T20:22:14.931Z,3.67
2023-03-11T20:25:17.244Z,3.61
2023-03-11T20:28:19.536Z,3.54
2023-03-11T20:31:23.967Z,3.48
2023-03-11T20:34:27.044Z,3.49
2023-03-11T20:37:30.582Z,3.49
2023-03-11T20:40:32.879Z,3.37
2023-03-11T20:43:36.388Z,3.39
2023-03-11T20:46:40.389Z,3.42
2023-03-11T20:49:43.945Z,3.42
2023-03-11T20:52:45.882Z,3.24
2023-03-11T20:55:49.534Z,3.27
2023-03-11T20:58:52.722Z,3.22
2023-03-11T21:01:54.894Z,3.15
2023-03-11T21:04:59.809Z,3.06
2023-03-11T21:08:02.946Z,3.07
2023-03-11T21:11:05.892Z,3.07
2023-03-11T21:14:08.766Z,2.98
2023-03-11T21:17:11.286Z,2.99
2023-03-11T21:20:14.191Z,2.99
2023-03-11T21:23:16.744Z,3.06
2023-03-11T21:26:18.996Z,2.98
2023-03-11T21:29:20.964Z,2.88
2023-03-11T21:32:24.466Z,2.88
2023-03-11T21:35:28.810Z,2.94
2023-03-11T21:38:32.036Z,3.01
2023-03-11T21:41:34.540Z,2.80
2023-03-11T21:44:36.902Z,2.78
2023-03-11T21:47:39.163Z,2.85
2023-03-11T21:50:41.992Z,2.85
2023-03-11T21:53:44.567Z,2.84
2023-03-11T21:56:46.618Z,2.87
2023-03-11T21:59:49.199Z,2.98
2023-03-11T22:02:52.959Z,2.93
2023-03-11T22:06:00.790Z,2.91
2023-03-11T22:09:03.046Z,2.92
2023-03-11T22:12:05.922Z,2.97
2023-03-11T22:15:08.381Z,2.93
2023-03-11T22:18:10.919Z,2.96
2023-03-11T22:21:16.815Z,3.04
2023-03-11T22:24:18.815Z,3.07
2023-03-11T22:27:21.182Z,2.96
2023-03-11T22:30:25.921Z,2.91
2023-03-11T22:33:27.880Z,2.93
2023-03-11T22:36:29.938Z,2.91
2023-03-11T22:39:35.424Z,2.92
2023-03-11T22:42:38.102Z,2.79
2023-03-11T22:45:40.705Z,2.76
2023-03-11T22:48:44.096Z,2.77
2023-03-11T22:51:46.524Z,2.70
2023-03-11T22:54:49.842Z,2.67
2023-03-11T22:57:51.858Z,2.69
2023-03-11T23:00:53.926Z,2.61
2023-03-11T23:03:56.096Z,2.63
2023-03-11T23:06:58.347Z,2.57
2023-03-11T23:10:00.445Z,2.60
2023-03-11T23:13:02.594Z,2.68
2023-03-11T23:16:12.248Z,2.51
2023-03-11T23:19:14.515Z,2.51
2023-03-11T23:22:16.983Z,2.57
2023-03-11T23:25:19.518Z,2.53
2023-03-11T23:28:21.719Z,2.57
2023-03-11T23:31:27.824Z,2.55
2023-03-11T23:34:29.967Z,2.56
2023-03-11T23:37:31.912Z,2.58
2023-03-11T23:40:34.000Z,2.54
2023-03-11T23:43:36.735Z,2.62
2023-03-11T23:46:39.908Z,2.65
2023-03-11T23:49:42.679Z,2.46
2023-03-11T23:52:46.773Z,2.45
2023-03-11T23:55:49.344Z,2.49
2023-03-11T23:58:51.335Z,2.48
